Time;durP1;ratioP1;P1;durP2;ratioP2;P2;SDS_P1;SDS_P2;PMS_P1;PMS_P2;Temp;Humidity;BMP_temperature;BMP_pressure;BME280_temperature;BME280_humidity;BME280_pressure;Samples;Min_cycle;Max_cycle;Signal;HPM_P1;HPM_P2
2022/05/07 00:00:31;;;;;;;62.72;38.70;;;11.40;99.90;;;;;;5042182;28;20072;-83
2022/05/07 00:02:57;;;;;;;52.50;34.28;;;11.40;99.90;;;;;;5009655;28;20042;-83
2022/05/07 00:05:23;;;;;;;61.88;39.92;;;11.40;99.90;;;;;;5010622;28;20409;-83
2022/05/07 00:07:48;;;;;;;57.70;37.92;;;11.40;99.90;;;;;;5009391;28;20435;-83
2022/05/07 00:10:15;;;;;;;59.03;39.53;;;11.40;99.90;;;;;;5009695;28;20045;-83
2022/05/07 00:12:41;;;;;;;54.65;39.10;;;11.40;99.90;;;;;;5010418;28;20477;-83
2022/05/07 00:15:07;;;;;;;57.50;39.13;;;11.40;99.90;;;;;;5009272;28;20046;-84
2022/05/07 00:20:17;;;;;;;59.78;38.13;;;11.60;99.90;;;;;;5042953;28;20053;-83
2022/05/07 00:22:43;;;;;;;59.15;36.08;;;11.60;99.90;;;;;;5011509;28;20050;-83
2022/05/07 00:25:09;;;;;;;53.65;35.60;;;11.70;99.90;;;;;;5008946;28;20045;-83
2022/05/07 00:27:35;;;;;;;49.95;34.85;;;11.60;99.90;;;;;;5009878;28;20045;-83
2022/05/07 00:30:02;;;;;;;56.83;37.70;;;11.60;99.90;;;;;;5009044;28;20474;-83
2022/05/07 00:32:28;;;;;;;54.70;35.30;;;11.70;99.90;;;;;;5008261;28;20072;-83
2022/05/07 00:34:53;;;;;;;58.47;36.05;;;11.80;99.90;;;;;;5009205;28;20140;-83
2022/05/07 00:37:19;;;;;;;56.92;35.67;;;11.80;99.90;;;;;;5010157;28;20050;-83
2022/05/07 00:39:47;;;;;;;54.85;37.15;;;11.80;99.90;;;;;;5008273;28;20041;-84
2022/05/07 00:42:12;;;;;;;53.90;35.55;;;11.80;99.90;;;;;;5010058;28;20057;-83
2022/05/07 00:44:38;;;;;;;46.83;34.22;;;11.80;99.90;;;;;;5008616;28;20061;-83
2022/05/07 00:47:14;;;;;;;49.03;35.35;;;11.80;99.90;;;;;;5009048;28;20461;-83
2022/05/07 00:49:46;;;;;;;54.08;37.75;;;11.80;99.90;;;;;;5010838;28;20500;-83
2022/05/07 00:52:13;;;;;;;56.42;36.60;;;11.80;99.90;;;;;;5008984;28;20088;-84
2022/05/07 00:54:40;;;;;;;51.90;36.42;;;11.80;99.90;;;;;;5010399;28;20096;-83
2022/05/07 00:57:07;;;;;;;52.58;35.10;;;11.80;99.90;;;;;;5008748;28;20485;-83
2022/05/07 00:59:33;;;;;;;58.53;36.58;;;12.00;99.90;;;;;;5008075;28;20050;-83
2022/05/07 01:01:59;;;;;;;59.05;37.22;;;11.80;99.90;;;;;;5008765;28;20378;-83
2022/05/07 01:04:24;;;;;;;55.05;35.67;;;12.00;99.90;;;;;;4992769;28;20493;-83
2022/05/07 01:06:50;;;;;;;54.03;34.35;;;11.90;99.90;;;;;;5008294;28;20042;-84
2022/05/07 01:09:16;;;;;;;50.72;32.70;;;12.00;99.90;;;;;;5009862;28;20060;-83
2022/05/07 01:11:42;;;;;;;52.20;33.58;;;11.90;99.90;;;;;;5008992;28;20393;-83
2022/05/07 01:14:08;;;;;;;55.10;34.22;;;12.00;99.90;;;;;;5008219;28;20060;-83
2022/05/07 01:16:33;;;;;;;50.95;35.28;;;12.00;99.90;;;;;;5008100;28;20379;-83
2022/05/07 01:18:59;;;;;;;48.92;34.13;;;12.00;99.90;;;;;;5008442;28;20127;-83
2022/05/07 01:21:25;;;;;;;52.60;34.47;;;12.00;99.90;;;;;;5009806;28;20042;-83
2022/05/07 01:23:51;;;;;;;56.92;35.88;;;12.00;99.90;;;;;;5008365;28;20452;-83
2022/05/07 01:26:20;;;;;;;52.15;32.45;;;12.00;99.90;;;;;;5010273;28;20561;-83
2022/05/07 01:28:46;;;;;;;50.92;33.22;;;12.00;99.90;;;;;;5008838;28;20050;-83
2022/05/07 01:31:11;;;;;;;55.10;32.72;;;12.00;99.90;;;;;;5007670;28;20080;-83
2022/05/07 01:33:38;;;;;;;55.30;34.88;;;12.00;99.90;;;;;;5008970;28;20054;-83
2022/05/07 01:36:11;;;;;;;53.60;34.75;;;12.00;99.90;;;;;;5007360;28;20053;-83
2022/05/07 01:38:38;;;;;;;53.83;35.78;;;12.00;99.90;;;;;;5009147;28;20085;-83
2022/05/07 01:41:04;;;;;;;56.65;35.95;;;12.00;99.90;;;;;;5007372;28;20046;-83
2022/05/07 01:43:33;;;;;;;50.53;33.80;;;12.00;99.90;;;;;;5010486;28;20042;-83
2022/05/07 01:46:00;;;;;;;55.38;35.60;;;12.10;99.90;;;;;;5008413;28;20042;-83
2022/05/07 01:48:26;;;;;;;53.72;36.03;;;12.50;99.90;;;;;;5008063;28;20049;-83
2022/05/07 01:50:52;;;;;;;47.60;32.45;;;12.10;99.90;;;;;;5007563;28;20054;-84
2022/05/07 01:53:17;;;;;;;46.33;32.50;;;12.10;99.90;;;;;;5009135;28;20038;-83
2022/05/07 01:55:44;;;;;;;59.17;35.70;;;12.10;99.90;;;;;;5007322;28;20548;-83
2022/05/07 01:58:11;;;;;;;53.00;34.63;;;12.10;99.90;;;;;;5008651;28;20046;-83
2022/05/07 02:00:40;;;;;;;60.17;34.60;;;12.20;99.90;;;;;;5009069;28;20901;-84
2022/05/07 02:03:06;;;;;;;51.30;33.08;;;12.20;99.90;;;;;;5006835;28;20044;-83
2022/05/07 02:05:32;;;;;;;51.28;32.80;;;12.10;99.90;;;;;;5008003;28;20144;-83
2022/05/07 02:07:58;;;;;;;50.90;33.00;;;12.20;99.90;;;;;;5009021;28;20137;-83
2022/05/07 02:10:24;;;;;;;48.30;31.02;;;12.10;99.90;;;;;;5007610;28;20064;-83
2022/05/07 02:12:50;;;;;;;48.28;32.08;;;12.10;99.90;;;;;;5009507;28;20045;-83
2022/05/07 02:15:16;;;;;;;47.58;33.15;;;12.10;99.90;;;;;;5009110;28;20056;-83
2022/05/07 02:17:42;;;;;;;57.50;36.05;;;12.00;99.90;;;;;;5007868;28;20129;-83
2022/05/07 02:20:08;;;;;;;51.53;34.97;;;12.00;99.90;;;;;;4990998;28;20058;-83
2022/05/07 02:22:34;;;;;;;51.95;33.30;;;12.10;99.90;;;;;;5009896;28;20034;-84
2022/05/07 02:25:00;;;;;;;51.95;33.67;;;12.10;99.90;;;;;;5007283;28;20072;-83
2022/05/07 02:27:26;;;;;;;62.25;36.33;;;12.20;99.90;;;;;;5008697;28;20478;-83
2022/05/07 02:29:52;;;;;;;55.28;34.80;;;12.10;99.90;;;;;;5008416;28;20045;-83
2022/05/07 02:32:18;;;;;;;51.15;33.40;;;12.10;99.90;;;;;;5007826;28;20489;-83
2022/05/07 02:34:44;;;;;;;52.58;33.88;;;12.10;99.90;;;;;;5007717;28;20519;-83
2022/05/07 02:37:10;;;;;;;48.65;33.50;;;12.20;99.90;;;;;;5007633;28;20053;-83
2022/05/07 02:39:36;;;;;;;50.88;33.45;;;12.20;99.90;;;;;;5007247;28;20774;-83
2022/05/07 02:44:46;;;;;;;49.53;30.30;;;12.20;99.90;;;;;;5039085;28;20504;-83
2022/05/07 02:47:12;;;;;;;48.45;31.58;;;12.40;99.90;;;;;;5006859;28;20052;-83
2022/05/07 02:49:38;;;;;;;51.92;33.28;;;12.20;99.90;;;;;;5007627;28;20132;-82
2022/05/07 02:52:04;;;;;;;55.60;34.13;;;12.20;99.90;;;;;;5007471;28;20076;-83
2022/05/07 02:54:30;;;;;;;66.57;34.40;;;12.20;99.90;;;;;;5040283;28;20153;-83
2022/05/07 02:56:56;;;;;;;57.63;36.10;;;12.30;99.90;;;;;;5008267;28;20120;-82
2022/05/07 02:59:22;;;;;;;58.92;35.05;;;12.30;99.90;;;;;;5006375;28;20050;-83
2022/05/07 03:01:47;;;;;;;50.53;33.58;;;12.30;99.90;;;;;;5008006;28;20417;-83
2022/05/07 03:04:13;;;;;;;58.00;35.70;;;12.30;99.90;;;;;;5008587;28;20121;-83
2022/05/07 03:06:39;;;;;;;55.83;34.40;;;12.40;99.90;;;;;;5006387;28;20555;-83
2022/05/07 03:09:05;;;;;;;50.60;32.63;;;12.40;99.90;;;;;;5006755;28;20079;-83
2022/05/07 03:11:33;;;;;;;54.42;33.63;;;12.30;99.90;;;;;;5007215;28;20076;-82
2022/05/07 03:14:00;;;;;;;57.70;35.30;;;12.40;99.90;;;;;;5006084;28;20140;-83
2022/05/07 03:16:26;;;;;;;55.63;34.05;;;12.40;99.90;;;;;;5006140;28;20058;-83
2022/05/07 03:18:52;;;;;;;55.97;34.95;;;12.50;99.90;;;;;;5008296;28;20095;-82
2022/05/07 03:21:18;;;;;;;50.08;33.45;;;12.40;99.90;;;;;;5006169;28;20041;-83
2022/05/07 03:23:45;;;;;;;46.72;33.30;;;12.30;99.90;;;;;;5007373;28;20108;-83
2022/05/07 03:26:11;;;;;;;55.58;36.67;;;12.30;99.90;;;;;;5007111;28;20524;-83
2022/05/07 03:28:37;;;;;;;51.03;33.92;;;12.20;99.90;;;;;;5005956;28;20085;-83
2022/05/07 03:31:03;;;;;;;51.90;31.92;;;12.20;99.90;;;;;;5005361;28;20057;-82
2022/05/07 03:33:29;;;;;;;49.47;31.70;;;12.20;99.90;;;;;;5007579;28;20054;-83
2022/05/07 03:35:54;;;;;;;49.53;32.40;;;12.10;99.90;;;;;;5007352;28;20057;-83
2022/05/07 03:38:20;;;;;;;52.75;33.20;;;12.10;99.90;;;;;;5007333;28;20054;-83
2022/05/07 03:40:46;;;;;;;46.10;31.38;;;12.10;99.90;;;;;;5005028;28;20811;-82
2022/05/07 03:43:12;;;;;;;53.97;33.60;;;12.10;99.90;;;;;;5007140;28;20064;-83
2022/05/07 03:45:37;;;;;;;48.40;33.55;;;12.00;99.90;;;;;;5005750;28;20050;-82
2022/05/07 03:48:03;;;;;;;53.15;33.75;;;12.00;99.90;;;;;;5006072;28;20042;-83
2022/05/07 03:50:29;;;;;;;50.97;33.58;;;12.00;99.90;;;;;;5007081;28;20057;-83
2022/05/07 03:55:41;;;;;;;50.40;34.63;;;11.90;99.90;;;;;;5007306;28;20088;-83
2022/05/07 03:58:15;;;;;;;52.00;33.88;;;11.90;99.90;;;;;;5006876;28;20053;-83
2022/05/07 04:00:42;;;;;;;49.97;33.20;;;11.90;99.90;;;;;;5005572;28;20050;-83
2022/05/07 04:03:09;;;;;;;57.08;34.17;;;11.80;99.90;;;;;;5005941;28;20053;-83
2022/05/07 04:05:34;;;;;;;45.25;30.33;;;11.80;99.90;;;;;;5006305;28;20045;-82
2022/05/07 04:08:00;;;;;;;48.22;32.83;;;11.80;99.90;;;;;;5005930;28;20052;-82
2022/05/07 04:10:25;;;;;;;52.22;34.17;;;11.80;99.90;;;;;;5005397;28;20045;-82
2022/05/07 04:12:51;;;;;;;56.33;33.30;;;11.80;99.90;;;;;;5039127;28;20500;-82
2022/05/07 04:15:18;;;;;;;52.42;32.08;;;11.90;99.90;;;;;;5007226;28;20050;-82
2022/05/07 04:17:43;;;;;;;57.58;33.67;;;11.80;99.90;;;;;;5005964;28;20057;-82
2022/05/07 04:20:11;;;;;;;47.97;34.25;;;11.80;99.90;;;;;;5005641;28;20054;-82
2022/05/07 04:22:37;;;;;;;49.90;31.88;;;11.80;99.90;;;;;;5005956;28;20474;-83
2022/05/07 04:25:05;;;;;;;51.05;33.53;;;11.80;99.90;;;;;;5005360;28;20121;-83
2022/05/07 04:27:31;;;;;;;55.80;36.92;;;11.90;99.90;;;;;;5006162;28;20370;-83
2022/05/07 04:29:57;;;;;;;54.90;32.90;;;11.90;99.90;;;;;;5004949;28;20061;-83
2022/05/07 04:32:24;;;;;;;52.55;32.80;;;11.90;99.90;;;;;;5008426;28;20054;-83
2022/05/07 04:34:50;;;;;;;50.92;33.60;;;11.90;99.90;;;;;;5042553;28;20050;-83
2022/05/07 04:37:15;;;;;;;61.47;35.42;;;12.10;99.90;;;;;;5009349;28;20512;-83
2022/05/07 04:39:41;;;;;;;52.65;34.78;;;12.00;99.90;;;;;;5009134;28;20909;-83
2022/05/07 04:42:07;;;;;;;50.28;33.20;;;12.10;99.90;;;;;;5010930;28;20049;-83
2022/05/07 04:44:33;;;;;;;49.88;33.80;;;12.00;99.90;;;;;;5008557;28;20046;-82
2022/05/07 04:46:59;;;;;;;47.85;33.95;;;12.20;99.90;;;;;;5008506;28;20050;-82
2022/05/07 04:49:25;;;;;;;48.95;34.30;;;12.10;99.90;;;;;;5010984;28;20054;-83
2022/05/07 04:51:51;;;;;;;51.58;33.65;;;12.20;99.90;;;;;;5008230;28;20100;-83
2022/05/07 04:54:19;;;;;;;58.65;35.35;;;12.20;99.90;;;;;;5009527;28;20473;-82
2022/05/07 04:56:46;;;;;;;54.40;37.63;;;12.10;99.90;;;;;;5008665;28;20049;-83
2022/05/07 04:59:13;;;;;;;53.92;34.55;;;12.20;99.90;;;;;;5008718;28;20133;-82
2022/05/07 05:01:38;;;;;;;53.60;35.75;;;12.20;99.90;;;;;;5008368;28;20111;-82
2022/05/07 05:04:04;;;;;;;56.53;35.67;;;12.20;99.90;;;;;;5025247;28;20034;-83
2022/05/07 05:06:30;;;;;;;57.17;36.42;;;12.40;99.90;;;;;;5008760;28;20474;-83
2022/05/07 05:08:55;;;;;;;58.17;35.50;;;12.40;99.90;;;;;;5009507;28;20045;-82
2022/05/07 05:11:21;;;;;;;53.38;36.03;;;12.40;99.90;;;;;;5009356;28;20045;-82
2022/05/07 05:13:46;;;;;;;62.60;37.20;;;12.50;99.90;;;;;;5008146;28;20038;-82
2022/05/07 05:16:12;;;;;;;58.17;39.22;;;12.40;99.90;;;;;;5010197;28;20033;-83
2022/05/07 05:18:38;;;;;;;56.15;36.38;;;12.50;99.90;;;;;;5011228;28;20115;-82
2022/05/07 05:21:04;;;;;;;59.50;37.95;;;12.50;99.90;;;;;;5006957;28;20481;-82
2022/05/07 05:23:30;;;;;;;62.00;38.47;;;12.50;99.90;;;;;;5009473;28;20050;-83
2022/05/07 05:25:56;;;;;;;55.88;38.80;;;12.60;99.90;;;;;;5008326;28;20042;-81
2022/05/07 05:28:22;;;;;;;61.83;35.92;;;12.60;99.90;;;;;;5008668;28;20056;-83
2022/05/07 05:30:51;;;;;;;59.50;38.50;;;12.70;99.90;;;;;;5007074;28;20210;-81
2022/05/07 05:33:18;;;;;;;61.58;37.05;;;12.70;99.90;;;;;;5024522;28;20386;-82
2022/05/07 05:35:43;;;;;;;61.10;37.72;;;12.70;99.90;;;;;;5008384;28;20477;-82
2022/05/07 05:38:09;;;;;;;53.90;37.05;;;12.80;99.90;;;;;;5008926;28;20505;-82
2022/05/07 05:40:35;;;;;;;58.17;36.83;;;12.80;99.90;;;;;;5007664;28;20486;-81
2022/05/07 05:43:00;;;;;;;62.10;38.78;;;12.80;99.90;;;;;;5008746;28;20124;-82
2022/05/07 05:45:27;;;;;;;61.53;38.88;;;12.90;99.90;;;;;;5039827;28;20053;-82
2022/05/07 05:47:54;;;;;;;60.33;38.15;;;12.90;99.90;;;;;;5007179;28;20038;-82
2022/05/07 05:50:19;;;;;;;65.30;39.25;;;12.90;99.90;;;;;;5008604;28;20135;-82
2022/05/07 05:52:45;;;;;;;56.95;36.40;;;12.90;99.90;;;;;;5008385;28;20081;-82
2022/05/07 05:55:11;;;;;;;55.45;38.20;;;12.90;99.90;;;;;;5007891;28;20496;-82
2022/05/07 05:57:37;;;;;;;59.00;38.40;;;13.00;99.90;;;;;;5009530;28;20053;-82
2022/05/07 06:00:07;;;;;;;53.97;38.65;;;13.00;99.90;;;;;;5007604;28;20104;-81
2022/05/07 06:02:33;;;;;;;56.08;39.28;;;13.10;99.90;;;;;;5007338;28;20547;-81
2022/05/07 06:04:59;;;;;;;48.70;35.72;;;13.20;99.90;;;;;;4996383;28;20064;-82
2022/05/07 06:07:25;;;;;;;58.33;38.03;;;13.20;99.90;;;;;;5027046;28;20033;-82
2022/05/07 06:09:50;;;;;;;56.40;37.65;;;13.20;99.90;;;;;;5023313;28;20477;-82
2022/05/07 06:12:17;;;;;;;53.58;35.90;;;13.30;99.90;;;;;;5026899;28;20037;-82
2022/05/07 06:14:42;;;;;;;55.53;37.05;;;13.30;99.90;;;;;;5025957;28;20046;-82
2022/05/07 06:17:08;;;;;;;49.38;34.55;;;13.50;99.90;;;;;;5027660;28;20052;-82
2022/05/07 06:19:34;;;;;;;50.38;32.38;;;13.50;99.90;;;;;;5028960;28;20041;-82
2022/05/07 06:22:00;;;;;;;51.60;34.40;;;13.60;99.90;;;;;;5026425;28;20041;-82
2022/05/07 06:27:28;;;;;;;44.95;30.15;;;13.60;99.90;;;;;;5050416;28;20061;-82
2022/05/07 06:29:56;;;;;;;48.10;31.08;;;13.70;99.90;;;;;;5022440;28;20062;-82
2022/05/07 06:32:22;;;;;;;37.08;29.15;;;13.80;99.90;;;;;;5048721;28;20065;-82
2022/05/07 06:34:48;;;;;;;45.92;29.90;;;13.90;99.90;;;;;;5025725;28;20045;-86
2022/05/07 06:37:14;;;;;;;47.88;30.63;;;14.00;99.90;;;;;;5025545;28;20508;-82
2022/05/07 06:39:40;;;;;;;41.60;30.48;;;14.10;99.90;;;;;;5026323;28;20103;-83
2022/05/07 06:42:07;;;;;;;39.60;28.30;;;14.20;99.90;;;;;;5027646;28;20044;-83
2022/05/07 06:44:33;;;;;;;39.85;27.83;;;14.20;99.90;;;;;;5022214;28;20049;-82
2022/05/07 06:46:58;;;;;;;34.88;27.08;;;14.40;99.90;;;;;;5057393;28;20045;-83
2022/05/07 06:49:24;;;;;;;37.92;26.88;;;14.50;99.90;;;;;;5027520;28;20132;-83
2022/05/07 06:51:50;;;;;;;32.45;23.77;;;14.70;99.90;;;;;;5027240;28;20045;-82
2022/05/07 06:54:17;;;;;;;38.00;25.67;;;14.80;99.90;;;;;;5059005;28;20429;-83
2022/05/07 06:56:42;;;;;;;34.30;27.90;;;14.90;99.90;;;;;;5025578;28;20045;-81
2022/05/07 06:59:09;;;;;;;35.22;25.25;;;15.10;99.90;;;;;;5026158;28;20049;-82
2022/05/07 07:01:36;;;;;;;32.58;24.23;;;15.10;99.90;;;;;;5058020;28;20042;-82
2022/05/07 07:04:01;;;;;;;34.55;24.63;;;15.20;99.90;;;;;;5027978;28;20045;-83
2022/05/07 07:06:28;;;;;;;30.83;24.48;;;15.20;99.90;;;;;;5025260;28;20470;-83
2022/05/07 07:08:54;;;;;;;40.90;27.95;;;15.30;99.90;;;;;;5007318;28;20497;-81
2022/05/07 07:11:20;;;;;;;30.20;24.23;;;15.50;99.90;;;;;;5025638;28;20053;-82
2022/05/07 07:13:46;;;;;;;27.02;21.40;;;15.60;99.90;;;;;;5058901;28;20053;-83
2022/05/07 07:16:12;;;;;;;30.58;22.73;;;15.60;99.90;;;;;;5025694;28;20037;-83
2022/05/07 07:18:38;;;;;;;33.50;22.33;;;15.70;99.90;;;;;;5057931;28;20405;-83
2022/05/07 07:21:03;;;;;;;33.33;23.05;;;15.70;99.90;;;;;;5024738;28;20087;-83
2022/05/07 07:23:29;;;;;;;28.08;20.85;;;15.90;99.90;;;;;;5009665;28;20060;-82
2022/05/07 07:25:55;;;;;;;33.35;22.95;;;16.10;99.90;;;;;;5007909;28;20060;-83
2022/05/07 07:28:21;;;;;;;29.25;20.27;;;16.20;99.90;;;;;;5052183;28;20045;-82
2022/05/07 07:30:46;;;;;;;27.27;21.35;;;16.20;99.90;;;;;;5022412;28;20048;-82
2022/05/07 07:33:14;;;;;;;28.02;20.10;;;16.40;99.90;;;;;;5026097;28;20053;-83
2022/05/07 07:35:39;;;;;;;28.60;21.63;;;16.40;99.90;;;;;;5058842;28;20054;-82
2022/05/07 07:38:05;;;;;;;26.63;20.33;;;16.40;99.90;;;;;;5027301;28;20128;-82
2022/05/07 07:40:31;;;;;;;25.80;20.70;;;16.40;99.90;;;;;;5025599;28;20587;-82
2022/05/07 07:42:57;;;;;;;29.40;20.58;;;16.50;99.90;;;;;;5025473;28;20033;-82
2022/05/07 07:48:08;;;;;;;36.60;25.48;;;16.80;99.90;;;;;;5025835;28;20132;-82
2022/05/07 07:50:37;;;;;;;34.85;26.10;;;16.90;99.90;;;;;;5009553;28;20524;-82
2022/05/07 07:53:07;;;;;;;38.53;26.23;;;17.00;99.90;;;;;;5026254;28;20045;-81
2022/05/07 07:55:34;;;;;;;41.28;26.88;;;17.00;99.90;;;;;;5025909;28;20112;-82
2022/05/07 07:58:01;;;;;;;33.67;25.95;;;16.90;99.90;;;;;;5059200;28;20045;-81
2022/05/07 08:00:28;;;;;;;31.17;24.42;;;17.00;99.90;;;;;;5025039;28;20042;-81
2022/05/07 08:02:57;;;;;;;35.65;24.73;;;17.00;99.90;;;;;;5026013;28;20474;-81
2022/05/07 08:05:24;;;;;;;31.83;24.05;;;17.10;99.90;;;;;;5027320;28;20061;-82
2022/05/07 08:13:19;;;;;;;33.38;22.95;;;17.20;99.90;;;;;;5012066;28;20069;-81
2022/05/07 08:15:45;;;;;;;30.95;22.52;;;17.10;99.90;;;;;;5007644;28;20046;-81
2022/05/07 08:18:12;;;;;;;29.38;20.95;;;17.00;99.90;;;;;;5010442;28;20107;-82
2022/05/07 08:20:41;;;;;;;28.38;21.50;;;16.90;99.90;;;;;;5010378;28;20075;-81
2022/05/07 08:23:08;;;;;;;32.90;22.13;;;16.90;99.90;;;;;;5009198;28;20046;-81
2022/05/07 08:25:33;;;;;;;29.63;21.50;;;16.90;99.90;;;;;;5009780;28;20046;-82
2022/05/07 08:27:59;;;;;;;35.65;22.75;;;16.80;99.90;;;;;;5009333;28;20045;-81
2022/05/07 08:30:25;;;;;;;31.70;22.92;;;16.80;99.90;;;;;;5011475;28;20046;-81
2022/05/07 08:32:51;;;;;;;31.80;23.95;;;16.70;99.90;;;;;;5008668;28;20054;-81
2022/05/07 08:35:18;;;;;;;45.08;31.73;;;16.70;99.90;;;;;;5009500;28;20508;-81
2022/05/07 08:37:44;;;;;;;40.63;30.15;;;16.60;99.90;;;;;;5009168;28;20438;-81
2022/05/07 08:40:13;;;;;;;44.22;31.02;;;16.60;99.90;;;;;;5009577;28;20081;-81
2022/05/07 08:42:39;;;;;;;42.70;29.50;;;16.50;99.90;;;;;;5009954;28;20124;-81
2022/05/07 08:45:05;;;;;;;45.15;30.50;;;16.50;99.90;;;;;;5007528;28;20053;-83
2022/05/07 08:47:32;;;;;;;59.08;32.00;;;16.50;99.90;;;;;;5009372;28;20398;-82
2022/05/07 08:49:57;;;;;;;41.70;28.90;;;16.50;99.90;;;;;;5008083;28;20456;-82
2022/05/07 08:52:24;;;;;;;42.03;28.48;;;16.50;99.90;;;;;;5009594;28;20133;-81
2022/05/07 08:54:50;;;;;;;45.75;30.80;;;16.50;99.90;;;;;;5008830;28;20050;-82
2022/05/07 08:57:16;;;;;;;45.80;30.02;;;16.60;99.90;;;;;;5008827;28;20843;-81
2022/05/07 08:59:43;;;;;;;38.78;29.20;;;16.60;99.90;;;;;;5010508;28;20053;-81
2022/05/07 09:02:09;;;;;;;42.53;28.90;;;16.80;99.90;;;;;;5008357;28;20658;-80
2022/05/07 09:04:37;;;;;;;41.53;28.27;;;17.00;99.90;;;;;;5008719;28;20049;-82
2022/05/07 09:07:04;;;;;;;47.97;29.23;;;17.10;99.90;;;;;;5008329;28;20133;-81
2022/05/07 09:09:31;;;;;;;40.40;29.05;;;17.20;99.90;;;;;;5009363;28;20077;-81
2022/05/07 09:11:58;;;;;;;44.10;27.42;;;17.20;99.90;;;;;;5009369;28;20525;-81
2022/05/07 09:14:32;;;;;;;39.15;26.67;;;17.30;99.90;;;;;;5008665;28;20081;-80
2022/05/07 09:16:59;;;;;;;40.80;27.13;;;17.30;99.90;;;;;;5007733;28;20052;-81
2022/05/07 09:19:27;;;;;;;38.10;26.67;;;17.30;99.90;;;;;;4991748;28;20077;-82
2022/05/07 09:22:11;;;;;;;33.80;25.05;;;17.40;99.90;;;;;;5008400;28;20092;-81
2022/05/07 09:24:37;;;;;;;;;;;17.40;99.90;;;;;;5011089;28;20123;-83
2022/05/07 09:27:04;;;;;;;35.22;25.88;;;17.30;99.90;;;;;;5007644;28;19932;-83
2022/05/07 09:29:31;;;;;;;32.65;24.17;;;17.40;99.90;;;;;;5008369;28;20042;-83
2022/05/07 09:32:08;;;;;;;33.38;24.63;;;17.30;99.90;;;;;;5008671;28;20054;-84
2022/05/07 09:37:40;;;;;;;33.85;23.77;;;17.40;99.90;;;;;;5008837;28;20512;-86
2022/05/07 09:40:08;;;;;;;31.83;23.52;;;17.50;99.90;;;;;;5059831;28;20034;-82
2022/05/07 09:42:34;;;;;;;35.00;24.90;;;17.50;99.90;;;;;;5028000;28;20075;-81
2022/05/07 09:45:01;;;;;;;37.38;22.83;;;17.60;99.90;;;;;;5026547;28;20073;-82
2022/05/07 09:47:28;;;;;;;37.20;24.00;;;17.60;99.90;;;;;;5025643;28;20060;-82
2022/05/07 09:57:30;;;;;;;32.70;24.08;;;17.60;99.90;;;;;;5027288;28;20072;-82
2022/05/07 09:58:10;;;;;;;37.67;22.05;;;17.60;99.90;;;;;;5026997;28;20138;-83
2022/05/07 10:00:42;;;;;;;29.25;22.45;;;17.70;99.90;;;;;;5026346;28;20045;-83
2022/05/07 10:03:26;;;;;;;39.63;22.13;;;17.80;99.90;;;;;;5026807;28;20053;-82
2022/05/07 10:06:10;;;;;;;31.85;22.77;;;17.90;99.90;;;;;;5061337;28;20079;-82
2022/05/07 10:08:55;;;;;;;30.40;22.38;;;18.00;99.90;;;;;;5027481;28;20045;-82
2022/05/07 10:11:22;;;;;;;36.03;23.45;;;18.10;99.90;;;;;;5027685;28;20096;-82
2022/05/07 10:13:55;;;;;;;31.40;23.88;;;18.20;99.90;;;;;;5026381;28;20063;-81
2022/05/07 10:16:23;;;;;;;30.73;22.10;;;18.20;99.90;;;;;;5058354;28;20049;-82
2022/05/07 10:18:49;;;;;;;38.33;24.55;;;18.20;99.90;;;;;;5027929;28;20500;-83
2022/05/07 10:21:17;;;;;;;31.27;24.05;;;18.30;99.90;;;;;;5026510;28;20053;-83
2022/05/07 10:23:51;;;;;;;36.55;25.27;;;18.40;99.90;;;;;;5060903;28;20484;-82
2022/05/07 10:26:17;;;;;;;36.58;25.70;;;18.50;99.90;;;;;;5058398;28;20053;-82
2022/05/07 10:28:43;;;;;;;36.42;24.77;;;18.50;99.90;;;;;;5026539;28;20044;-82
2022/05/07 10:31:17;;;;;;;37.53;24.77;;;18.50;99.90;;;;;;5026971;28;20057;-83
2022/05/07 10:33:43;;;;;;;32.95;23.33;;;18.50;99.90;;;;;;5028836;28;20049;-83
2022/05/07 10:36:10;;;;;;;35.28;24.58;;;18.60;99.90;;;;;;5008875;28;20500;-84
2022/05/07 10:38:38;;;;;;;34.78;24.38;;;18.70;99.90;;;;;;5060513;28;20061;-85
2022/05/07 10:41:11;;;;;;;35.03;25.00;;;18.80;99.90;;;;;;5026066;28;20052;-84
2022/05/07 10:43:39;;;;;;;38.17;25.27;;;18.70;99.90;;;;;;5045415;28;20041;-83
2022/05/07 10:46:06;;;;;;;37.58;25.10;;;18.70;99.90;;;;;;5059683;28;20045;-84
2022/05/07 10:48:47;;;;;;;39.28;25.65;;;18.60;99.90;;;;;;5060217;28;20116;-84
2022/05/07 10:51:17;;;;;;;39.00;25.95;;;18.50;99.90;;;;;;5025155;28;20152;-82
2022/05/07 10:53:43;;;;;;;37.95;26.00;;;18.10;99.90;;;;;;5026754;28;20485;-84
2022/05/07 10:56:16;;;;;;;41.95;26.48;;;18.00;99.90;;;;;;5009007;28;20049;-81
2022/05/07 10:58:46;;;;;;;43.70;26.23;;;18.00;99.90;;;;;;5037526;28;20088;-82
2022/05/07 11:01:12;;;;;;;38.25;24.65;;;17.80;99.90;;;;;;5026596;28;20049;-83
2022/05/07 11:03:38;;;;;;;35.20;22.75;;;17.70;99.90;;;;;;5059326;28;20091;-82
2022/05/07 11:06:04;;;;;;;34.85;23.55;;;17.70;99.90;;;;;;5026108;28;20049;-83
2022/05/07 11:08:30;;;;;;;40.40;23.58;;;17.60;99.90;;;;;;5026782;28;20053;-82
2022/05/07 11:11:07;;;;;;;31.08;20.67;;;17.70;99.90;;;;;;5041760;28;20042;-83
2022/05/07 11:13:43;;;;;;;31.50;20.80;;;17.70;99.90;;;;;;5010250;28;20405;-83
2022/05/07 11:16:08;;;;;;;26.90;18.45;;;17.70;99.90;;;;;;5025186;28;20440;-83
2022/05/07 11:18:34;;;;;;;29.38;18.73;;;17.80;99.90;;;;;;5026777;28;20045;-83
2022/05/07 11:21:03;;;;;;;30.95;19.50;;;17.90;99.90;;;;;;5026150;28;20517;-83
2022/05/07 11:23:30;;;;;;;29.90;20.30;;;17.90;99.90;;;;;;5059902;28;20088;-83
2022/05/07 11:25:56;;;;;;;27.30;17.08;;;18.00;99.90;;;;;;5059358;28;20053;-83
2022/05/07 11:28:22;;;;;;;23.45;16.45;;;17.90;99.90;;;;;;5026818;28;20041;-82
2022/05/07 11:30:50;;;;;;;26.92;17.25;;;17.70;99.90;;;;;;5006913;28;20137;-83
2022/05/07 11:33:23;;;;;;;27.27;17.33;;;17.60;99.90;;;;;;5022800;28;20048;-83
2022/05/07 11:35:58;;;;;;;;;;;17.50;99.90;;;;;;5006412;28;20089;-82
2022/05/07 11:38:24;;;;;;;28.30;17.75;;;17.40;99.90;;;;;;5039874;28;19927;-83
2022/05/07 11:40:50;;;;;;;28.63;18.50;;;17.40;99.90;;;;;;5005873;28;20408;-83
2022/05/07 11:46:11;;;;;;;25.08;15.70;;;17.60;99.90;;;;;;5008908;28;20061;-83
2022/05/07 11:48:36;;;;;;;23.75;15.75;;;17.70;99.90;;;;;;5010732;28;20056;-83
2022/05/07 11:51:02;;;;;;;24.45;15.48;;;17.70;99.90;;;;;;5009574;28;20041;-83
2022/05/07 11:53:30;;;;;;;22.67;15.15;;;17.80;99.90;;;;;;5011689;28;20080;-82
2022/05/07 11:56:08;;;;;;;21.98;14.45;;;17.80;99.90;;;;;;5009303;28;20127;-83
2022/05/07 11:58:43;;;;;;;16.92;9.80;;;17.70;99.90;;;;;;5010230;28;20445;-83
2022/05/07 12:01:20;;;;;;;13.10;8.35;;;17.70;99.90;;;;;;5041337;28;20038;-82
2022/05/07 12:03:47;;;;;;;17.50;7.72;;;17.60;99.90;;;;;;5043054;28;20112;-83
2022/05/07 12:06:35;;;;;;;14.15;7.80;;;17.60;99.90;;;;;;5010050;28;20478;-83
2022/05/07 12:09:13;;;;;;;16.67;7.82;;;17.70;99.90;;;;;;5041807;28;20549;-83
2022/05/07 12:11:42;;;;;;;13.52;7.80;;;17.90;99.90;;;;;;5042748;28;20054;-82
2022/05/07 12:14:09;;;;;;;11.05;7.00;;;17.90;99.90;;;;;;5042218;28;20037;-82
2022/05/07 12:19:27;;;;;;;11.85;7.63;;;18.20;99.90;;;;;;5043134;28;20764;-82
2022/05/07 12:30:19;;;;;;;14.10;8.30;;;18.20;99.90;;;;;;5009762;28;20409;-82
2022/05/07 12:32:45;;;;;;;12.07;9.30;;;18.20;99.90;;;;;;5010563;28;20042;-82
2022/05/07 12:35:12;;;;;;;16.77;8.45;;;18.20;99.90;;;;;;5041697;28;20489;-82
2022/05/07 12:37:38;;;;;;;15.98;8.77;;;18.20;99.90;;;;;;5042937;28;20045;-83
2022/05/07 12:40:07;;;;;;;11.32;8.05;;;18.20;99.90;;;;;;5025069;28;20046;-82
2022/05/07 12:42:33;;;;;;;13.25;8.00;;;18.10;99.90;;;;;;5042252;28;20085;-82
2022/05/07 12:44:58;;;;;;;14.90;9.23;;;18.00;99.90;;;;;;5041511;28;20494;-82
2022/05/07 12:47:25;;;;;;;15.45;9.00;;;18.00;99.90;;;;;;5010714;28;20509;-82
2022/05/07 12:49:51;;;;;;;24.88;9.32;;;18.00;99.90;;;;;;5041344;28;20045;-82
2022/05/07 12:52:17;;;;;;;16.25;11.57;;;18.00;99.90;;;;;;5010339;28;20437;-82
2022/05/07 12:54:42;;;;;;;19.88;13.02;;;17.90;99.90;;;;;;5008952;28;20060;-83
2022/05/07 12:57:09;;;;;;;21.73;14.05;;;17.80;99.90;;;;;;5008028;28;20057;-82
2022/05/07 12:59:36;;;;;;;22.20;14.65;;;17.80;99.90;;;;;;5008722;28;20046;-82
2022/05/07 13:02:05;;;;;;;20.55;14.63;;;17.80;99.90;;;;;;5008525;28;20486;-82
2022/05/07 13:04:32;;;;;;;18.80;13.13;;;17.80;99.90;;;;;;5009291;28;20084;-82
2022/05/07 13:06:57;;;;;;;16.45;12.45;;;17.80;99.90;;;;;;5008944;28;20049;-82
2022/05/07 13:09:23;;;;;;;16.63;11.45;;;17.90;99.90;;;;;;5008938;28;20737;-83